sensor_id;sensor_type;location;lat;lon;timestamp;P1;durP1;ratioP1;P2;durP2;ratioP2
70543;SDS011;58097;48.364;-1.224;2023-05-07T00:01:00;5.63;;;3.05;;
70543;SDS011;58097;48.364;-1.224;2023-05-07T00:03:25;6.60;;;3.03;;
70543;SDS011;58097;48.364;-1.224;2023-05-07T00:05:51;5.78;;;2.60;;
70543;SDS011;58097;48.364;-1.224;2023-05-07T00:08:18;5.88;;;2.65;;
70543;SDS011;58097;48.364;-1.224;2023-05-07T00:10:43;4.50;;;3.38;;
70543;SDS011;58097;48.364;-1.224;2023-05-07T00:13:09;5.13;;;3.00;;
70543;SDS011;58097;48.364;-1.224;2023-05-07T00:15:35;5.10;;;2.70;;
70543;SDS011;58097;48.364;-1.224;2023-05-07T00:18:00;9.23;;;3.60;;
70543;SDS011;58097;48.364;-1.224;2023-05-07T00:20:26;7.03;;;2.92;;
70543;SDS011;58097;48.364;-1.224;2023-05-07T00:22:51;10.20;;;3.13;;
70543;SDS011;58097;48.364;-1.224;2023-05-07T00:25:17;5.10;;;2.88;;
70543;SDS011;58097;48.364;-1.224;2023-05-07T00:27:44;4.80;;;2.83;;
70543;SDS011;58097;48.364;-1.224;2023-05-07T00:30:10;5.90;;;3.00;;
70543;SDS011;58097;48.364;-1.224;2023-05-07T00:32:35;8.88;;;3.47;;
70543;SDS011;58097;48.364;-1.224;2023-05-07T00:35:01;6.95;;;3.50;;
70543;SDS011;58097;48.364;-1.224;2023-05-07T00:37:27;10.43;;;4.47;;
70543;SDS011;58097;48.364;-1.224;2023-05-07T00:39:52;6.82;;;3.03;;
70543;SDS011;58097;48.364;-1.224;2023-05-07T00:42:18;8.63;;;3.60;;
70543;SDS011;58097;48.364;-1.224;2023-05-07T00:44:43;4.72;;;3.80;;
70543;SDS011;58097;48.364;-1.224;2023-05-07T00:47:08;4.95;;;3.63;;
70543;SDS011;58097;48.364;-1.224;2023-05-07T00:49:41;13.65;;;3.95;;
70543;SDS011;58097;48.364;-1.224;2023-05-07T00:52:08;13.10;;;4.10;;
70543;SDS011;58097;48.364;-1.224;2023-05-07T00:54:36;8.55;;;3.13;;
70543;SDS011;58097;48.364;-1.224;2023-05-07T00:57:02;10.80;;;3.30;;
70543;SDS011;58097;48.364;-1.224;2023-05-07T00:59:29;5.75;;;3.45;;
70543;SDS011;58097;48.364;-1.224;2023-05-07T01:01:56;8.38;;;3.47;;
70543;SDS011;58097;48.364;-1.224;2023-05-07T01:04:22;7.07;;;2.97;;
70543;SDS011;58097;48.364;-1.224;2023-05-07T01:06:47;11.15;;;3.95;;
70543;SDS011;58097;48.364;-1.224;2023-05-07T01:09:13;5.18;;;3.40;;
70543;SDS011;58097;48.364;-1.224;2023-05-07T01:11:39;6.47;;;3.33;;
70543;SDS011;58097;48.364;-1.224;2023-05-07T01:14:05;10.52;;;3.20;;
70543;SDS011;58097;48.364;-1.224;2023-05-07T01:16:32;10.02;;;3.35;;
70543;SDS011;58097;48.364;-1.224;2023-05-07T01:18:57;4.78;;;3.35;;
70543;SDS011;58097;48.364;-1.224;2023-05-07T01:21:25;16.52;;;4.13;;
70543;SDS011;58097;48.364;-1.224;2023-05-07T01:23:51;9.07;;;4.03;;
70543;SDS011;58097;48.364;-1.224;2023-05-07T01:26:18;15.80;;;3.95;;
70543;SDS011;58097;48.364;-1.224;2023-05-07T01:28:44;8.65;;;3.63;;
70543;SDS011;58097;48.364;-1.224;2023-05-07T01:31:10;8.13;;;3.38;;
70543;SDS011;58097;48.364;-1.224;2023-05-07T01:33:38;6.55;;;3.08;;
70543;SDS011;58097;48.364;-1.224;2023-05-07T01:36:06;6.30;;;3.30;;
70543;SDS011;58097;48.364;-1.224;2023-05-07T01:38:34;13.25;;;3.45;;
70543;SDS011;58097;48.364;-1.224;2023-05-07T01:41:01;9.73;;;4.50;;
70543;SDS011;58097;48.364;-1.224;2023-05-07T01:43:27;9.32;;;3.53;;
70543;SDS011;58097;48.364;-1.224;2023-05-07T01:45:54;8.95;;;3.67;;
70543;SDS011;58097;48.364;-1.224;2023-05-07T01:48:20;8.85;;;3.25;;
70543;SDS011;58097;48.364;-1.224;2023-05-07T01:50:46;10.57;;;4.18;;
70543;SDS011;58097;48.364;-1.224;2023-05-07T01:53:12;11.18;;;3.80;;
70543;SDS011;58097;48.364;-1.224;2023-05-07T01:55:37;8.98;;;4.15;;
70543;SDS011;58097;48.364;-1.224;2023-05-07T01:58:03;10.05;;;4.15;;
70543;SDS011;58097;48.364;-1.224;2023-05-07T02:00:29;5.43;;;3.50;;
70543;SDS011;58097;48.364;-1.224;2023-05-07T02:02:54;7.07;;;4.18;;
70543;SDS011;58097;48.364;-1.224;2023-05-07T02:05:20;10.18;;;4.85;;
70543;SDS011;58097;48.364;-1.224;2023-05-07T02:07:45;10.35;;;3.50;;
70543;SDS011;58097;48.364;-1.224;2023-05-07T02:10:11;12.68;;;4.05;;
70543;SDS011;58097;48.364;-1.224;2023-05-07T02:12:36;11.43;;;3.83;;
70543;SDS011;58097;48.364;-1.224;2023-05-07T02:15:01;8.85;;;3.90;;
70543;SDS011;58097;48.364;-1.224;2023-05-07T02:17:27;6.90;;;4.20;;
70543;SDS011;58097;48.364;-1.224;2023-05-07T02:19:56;9.02;;;3.63;;
70543;SDS011;58097;48.364;-1.224;2023-05-07T02:22:22;10.82;;;3.40;;
70543;SDS011;58097;48.364;-1.224;2023-05-07T02:24:47;9.88;;;4.00;;
70543;SDS011;58097;48.364;-1.224;2023-05-07T02:27:12;7.93;;;3.58;;
70543;SDS011;58097;48.364;-1.224;2023-05-07T02:29:38;9.93;;;4.18;;
70543;SDS011;58097;48.364;-1.224;2023-05-07T02:32:03;7.32;;;3.47;;
70543;SDS011;58097;48.364;-1.224;2023-05-07T02:34:29;6.85;;;3.65;;
70543;SDS011;58097;48.364;-1.224;2023-05-07T02:36:54;7.57;;;3.83;;
70543;SDS011;58097;48.364;-1.224;2023-05-07T02:39:20;7.00;;;3.78;;
70543;SDS011;58097;48.364;-1.224;2023-05-07T02:41:46;8.07;;;3.45;;
70543;SDS011;58097;48.364;-1.224;2023-05-07T02:44:11;10.00;;;3.83;;
70543;SDS011;58097;48.364;-1.224;2023-05-07T02:46:36;10.30;;;4.50;;
70543;SDS011;58097;48.364;-1.224;2023-05-07T02:49:02;14.02;;;3.80;;
70543;SDS011;58097;48.364;-1.224;2023-05-07T02:51:30;7.53;;;3.40;;
70543;SDS011;58097;48.364;-1.224;2023-05-07T02:53:55;8.52;;;3.63;;
70543;SDS011;58097;48.364;-1.224;2023-05-07T02:56:21;8.43;;;4.05;;
70543;SDS011;58097;48.364;-1.224;2023-05-07T02:58:47;8.05;;;3.80;;
70543;SDS011;58097;48.364;-1.224;2023-05-07T03:01:12;12.45;;;3.33;;
70543;SDS011;58097;48.364;-1.224;2023-05-07T03:03:39;4.78;;;3.25;;
70543;SDS011;58097;48.364;-1.224;2023-05-07T03:06:04;11.88;;;4.63;;
70543;SDS011;58097;48.364;-1.224;2023-05-07T03:08:30;7.20;;;3.45;;
70543;SDS011;58097;48.364;-1.224;2023-05-07T03:10:55;5.75;;;3.65;;
70543;SDS011;58097;48.364;-1.224;2023-05-07T03:13:21;5.35;;;3.42;;
70543;SDS011;58097;48.364;-1.224;2023-05-07T03:15:46;7.30;;;3.45;;
70543;SDS011;58097;48.364;-1.224;2023-05-07T03:18:12;5.72;;;3.53;;
70543;SDS011;58097;48.364;-1.224;2023-05-07T03:20:37;7.55;;;3.47;;
70543;SDS011;58097;48.364;-1.224;2023-05-07T03:23:02;10.02;;;3.15;;
70543;SDS011;58097;48.364;-1.224;2023-05-07T03:25:28;7.75;;;3.05;;
70543;SDS011;58097;48.364;-1.224;2023-05-07T03:27:55;8.43;;;2.88;;
70543;SDS011;58097;48.364;-1.224;2023-05-07T03:30:20;4.07;;;2.45;;
70543;SDS011;58097;48.364;-1.224;2023-05-07T03:32:46;4.65;;;2.33;;
70543;SDS011;58097;48.364;-1.224;2023-05-07T03:35:11;4.85;;;2.60;;
70543;SDS011;58097;48.364;-1.224;2023-05-07T03:37:37;4.97;;;2.22;;
70543;SDS011;58097;48.364;-1.224;2023-05-07T03:40:03;7.10;;;2.92;;
70543;SDS011;58097;48.364;-1.224;2023-05-07T03:42:29;6.32;;;2.78;;
70543;SDS011;58097;48.364;-1.224;2023-05-07T03:44:54;5.63;;;2.75;;
70543;SDS011;58097;48.364;-1.224;2023-05-07T03:47:20;4.10;;;2.70;;
70543;SDS011;58097;48.364;-1.224;2023-05-07T03:49:45;2.28;;;1.98;;
70543;SDS011;58097;48.364;-1.224;2023-05-07T03:52:10;4.45;;;2.58;;
70543;SDS011;58097;48.364;-1.224;2023-05-07T03:54:36;5.78;;;2.42;;
70543;SDS011;58097;48.364;-1.224;2023-05-07T03:57:01;4.60;;;2.25;;
70543;SDS011;58097;48.364;-1.224;2023-05-07T03:59:26;1.33;;;1.08;;
70543;SDS011;58097;48.364;-1.224;2023-05-07T04:01:52;1.73;;;1.50;;
70543;SDS011;58097;48.364;-1.224;2023-05-07T04:04:17;1.95;;;1.55;;
70543;SDS011;58097;48.364;-1.224;2023-05-07T04:06:43;1.55;;;1.45;;
70543;SDS011;58097;48.364;-1.224;2023-05-07T04:09:08;3.15;;;1.20;;
70543;SDS011;58097;48.364;-1.224;2023-05-07T04:11:34;2.10;;;1.00;;
70543;SDS011;58097;48.364;-1.224;2023-05-07T04:14:00;1.40;;;1.30;;
70543;SDS011;58097;48.364;-1.224;2023-05-07T04:16:26;1.30;;;1.20;;
70543;SDS011;58097;48.364;-1.224;2023-05-07T04:18:51;1.30;;;1.20;;
70543;SDS011;58097;48.364;-1.224;2023-05-07T04:21:17;1.55;;;1.13;;
70543;SDS011;58097;48.364;-1.224;2023-05-07T04:23:45;1.88;;;1.60;;
70543;SDS011;58097;48.364;-1.224;2023-05-07T04:26:11;2.80;;;1.45;;
70543;SDS011;58097;48.364;-1.224;2023-05-07T04:28:36;3.80;;;2.15;;
70543;SDS011;58097;48.364;-1.224;2023-05-07T04:31:01;2.80;;;2.03;;
70543;SDS011;58097;48.364;-1.224;2023-05-07T04:33:27;4.10;;;2.25;;
70543;SDS011;58097;48.364;-1.224;2023-05-07T04:35:52;3.08;;;2.17;;
70543;SDS011;58097;48.364;-1.224;2023-05-07T04:38:17;3.53;;;2.25;;
70543;SDS011;58097;48.364;-1.224;2023-05-07T04:40:43;3.78;;;2.47;;
70543;SDS011;58097;48.364;-1.224;2023-05-07T04:43:09;3.60;;;2.63;;
70543;SDS011;58097;48.364;-1.224;2023-05-07T04:45:35;4.07;;;2.30;;
70543;SDS011;58097;48.364;-1.224;2023-05-07T04:48:01;4.28;;;2.85;;
70543;SDS011;58097;48.364;-1.224;2023-05-07T04:50:26;2.92;;;2.33;;
70543;SDS011;58097;48.364;-1.224;2023-05-07T04:52:52;2.47;;;2.05;;
70543;SDS011;58097;48.364;-1.224;2023-05-07T04:55:17;4.25;;;3.20;;
70543;SDS011;58097;48.364;-1.224;2023-05-07T04:57:43;3.97;;;2.90;;
70543;SDS011;58097;48.364;-1.224;2023-05-07T05:00:08;6.28;;;3.15;;
70543;SDS011;58097;48.364;-1.224;2023-05-07T05:02:34;3.70;;;2.67;;
70543;SDS011;58097;48.364;-1.224;2023-05-07T05:05:00;5.22;;;3.67;;
70543;SDS011;58097;48.364;-1.224;2023-05-07T05:07:27;5.00;;;3.50;;
70543;SDS011;58097;48.364;-1.224;2023-05-07T05:09:53;3.83;;;3.05;;
70543;SDS011;58097;48.364;-1.224;2023-05-07T05:12:19;5.38;;;3.83;;
70543;SDS011;58097;48.364;-1.224;2023-05-07T05:14:44;5.03;;;3.53;;
70543;SDS011;58097;48.364;-1.224;2023-05-07T05:17:09;4.63;;;3.15;;
70543;SDS011;58097;48.364;-1.224;2023-05-07T05:19:35;4.90;;;3.58;;
70543;SDS011;58097;48.364;-1.224;2023-05-07T05:22:00;4.43;;;2.95;;
70543;SDS011;58097;48.364;-1.224;2023-05-07T05:24:26;5.30;;;3.28;;
70543;SDS011;58097;48.364;-1.224;2023-05-07T05:26:53;5.43;;;3.38;;
70543;SDS011;58097;48.364;-1.224;2023-05-07T05:29:19;4.75;;;3.45;;
70543;SDS011;58097;48.364;-1.224;2023-05-07T05:31:44;4.22;;;2.67;;
70543;SDS011;58097;48.364;-1.224;2023-05-07T05:34:10;4.57;;;3.22;;
70543;SDS011;58097;48.364;-1.224;2023-05-07T05:36:35;4.00;;;3.17;;
70543;SDS011;58097;48.364;-1.224;2023-05-07T05:39:00;4.47;;;3.50;;
70543;SDS011;58097;48.364;-1.224;2023-05-07T05:41:26;4.72;;;2.95;;
70543;SDS011;58097;48.364;-1.224;2023-05-07T05:43:51;4.03;;;2.78;;
70543;SDS011;58097;48.364;-1.224;2023-05-07T05:46:16;4.22;;;3.00;;
70543;SDS011;58097;48.364;-1.224;2023-05-07T05:48:42;4.03;;;3.58;;
70543;SDS011;58097;48.364;-1.224;2023-05-07T05:51:07;5.43;;;3.17;;
70543;SDS011;58097;48.364;-1.224;2023-05-07T05:53:32;3.92;;;2.88;;
70543;SDS011;58097;48.364;-1.224;2023-05-07T05:55:58;3.35;;;2.45;;
70543;SDS011;58097;48.364;-1.224;2023-05-07T05:58:24;4.57;;;3.10;;
70543;SDS011;58097;48.364;-1.224;2023-05-07T06:00:49;5.95;;;3.05;;
70543;SDS011;58097;48.364;-1.224;2023-05-07T06:03:17;3.50;;;2.80;;
70543;SDS011;58097;48.364;-1.224;2023-05-07T06:05:42;5.65;;;3.08;;
70543;SDS011;58097;48.364;-1.224;2023-05-07T06:08:08;5.38;;;3.38;;
70543;SDS011;58097;48.364;-1.224;2023-05-07T06:10:33;4.35;;;3.03;;
70543;SDS011;58097;48.364;-1.224;2023-05-07T06:12:58;3.60;;;3.08;;
70543;SDS011;58097;48.364;-1.224;2023-05-07T06:15:23;3.88;;;3.28;;
70543;SDS011;58097;48.364;-1.224;2023-05-07T06:17:49;4.57;;;2.85;;
70543;SDS011;58097;48.364;-1.224;2023-05-07T06:20:14;4.40;;;3.05;;
70543;SDS011;58097;48.364;-1.224;2023-05-07T06:22:40;4.43;;;3.25;;
70543;SDS011;58097;48.364;-1.224;2023-05-07T06:25:05;5.88;;;3.22;;
70543;SDS011;58097;48.364;-1.224;2023-05-07T06:27:31;7.28;;;3.72;;
70543;SDS011;58097;48.364;-1.224;2023-05-07T06:29:57;5.22;;;3.05;;
70543;SDS011;58097;48.364;-1.224;2023-05-07T06:32:22;5.32;;;4.30;;
70543;SDS011;58097;48.364;-1.224;2023-05-07T06:34:47;5.47;;;4.07;;
70543;SDS011;58097;48.364;-1.224;2023-05-07T06:37:13;9.57;;;5.10;;
70543;SDS011;58097;48.364;-1.224;2023-05-07T06:39:38;7.70;;;4.80;;
70543;SDS011;58097;48.364;-1.224;2023-05-07T06:42:04;9.52;;;5.00;;
70543;SDS011;58097;48.364;-1.224;2023-05-07T06:44:29;8.68;;;5.18;;
70543;SDS011;58097;48.364;-1.224;2023-05-07T06:46:55;8.25;;;4.75;;
70543;SDS011;58097;48.364;-1.224;2023-05-07T06:49:20;8.60;;;4.72;;
70543;SDS011;58097;48.364;-1.224;2023-05-07T06:51:46;7.05;;;5.15;;
70543;SDS011;58097;48.364;-1.224;2023-05-07T06:54:11;8.00;;;5.32;;
70543;SDS011;58097;48.364;-1.224;2023-05-07T06:56:37;8.55;;;5.55;;
70543;SDS011;58097;48.364;-1.224;2023-05-07T06:59:02;7.35;;;5.05;;
70543;SDS011;58097;48.364;-1.224;2023-05-07T07:01:28;10.20;;;5.22;;
70543;SDS011;58097;48.364;-1.224;2023-05-07T07:03:53;8.95;;;6.00;;
70543;SDS011;58097;48.364;-1.224;2023-05-07T07:06:19;9.90;;;6.28;;
70543;SDS011;58097;48.364;-1.224;2023-05-07T07:08:45;11.13;;;6.28;;
70543;SDS011;58097;48.364;-1.224;2023-05-07T07:11:10;10.25;;;5.63;;
70543;SDS011;58097;48.364;-1.224;2023-05-07T07:13:36;7.20;;;5.57;;
70543;SDS011;58097;48.364;-1.224;2023-05-07T07:16:01;8.77;;;5.90;;
70543;SDS011;58097;48.364;-1.224;2023-05-07T07:18:27;7.47;;;5.82;;
70543;SDS011;58097;48.364;-1.224;2023-05-07T07:20:53;7.57;;;5.88;;
70543;SDS011;58097;48.364;-1.224;2023-05-07T07:23:18;7.35;;;5.03;;
70543;SDS011;58097;48.364;-1.224;2023-05-07T07:25:43;9.77;;;6.03;;
70543;SDS011;58097;48.364;-1.224;2023-05-07T07:28:09;8.82;;;5.72;;
70543;SDS011;58097;48.364;-1.224;2023-05-07T07:30:35;7.53;;;4.85;;
70543;SDS011;58097;48.364;-1.224;2023-05-07T07:33:01;8.77;;;5.40;;
70543;SDS011;58097;48.364;-1.224;2023-05-07T07:35:34;6.53;;;4.85;;
70543;SDS011;58097;48.364;-1.224;2023-05-07T07:40:25;10.48;;;5.82;;
70543;SDS011;58097;48.364;-1.224;2023-05-07T07:42:51;8.70;;;5.35;;
70543;SDS011;58097;48.364;-1.224;2023-05-07T07:45:18;7.20;;;4.82;;
70543;SDS011;58097;48.364;-1.224;2023-05-07T07:47:43;8.18;;;4.90;;
70543;SDS011;58097;48.364;-1.224;2023-05-07T07:50:09;5.25;;;3.80;;
70543;SDS011;58097;48.364;-1.224;2023-05-07T07:52:35;4.93;;;3.50;;
70543;SDS011;58097;48.364;-1.224;2023-05-07T07:55:00;5.00;;;3.55;;
70543;SDS011;58097;48.364;-1.224;2023-05-07T07:57:26;4.35;;;2.92;;
70543;SDS011;58097;48.364;-1.224;2023-05-07T07:59:52;7.20;;;4.25;;
70543;SDS011;58097;48.364;-1.224;2023-05-07T08:02:17;4.15;;;3.42;;
70543;SDS011;58097;48.364;-1.224;2023-05-07T08:04:43;5.60;;;4.55;;
70543;SDS011;58097;48.364;-1.224;2023-05-07T08:07:11;6.20;;;4.22;;
70543;SDS011;58097;48.364;-1.224;2023-05-07T08:09:37;6.57;;;5.40;;
70543;SDS011;58097;48.364;-1.224;2023-05-07T08:12:03;9.48;;;6.90;;
70543;SDS011;58097;48.364;-1.224;2023-05-07T08:14:30;8.38;;;6.05;;
70543;SDS011;58097;48.364;-1.224;2023-05-07T08:16:55;9.38;;;6.53;;
70543;SDS011;58097;48.364;-1.224;2023-05-07T08:19:20;9.95;;;6.82;;
70543;SDS011;58097;48.364;-1.224;2023-05-07T08:21:46;11.43;;;6.95;;
70543;SDS011;58097;48.364;-1.224;2023-05-07T08:24:13;11.27;;;7.40;;
70543;SDS011;58097;48.364;-1.224;2023-05-07T08:26:42;11.00;;;7.88;;
70543;SDS011;58097;48.364;-1.224;2023-05-07T08:29:08;10.95;;;6.30;;
70543;SDS011;58097;48.364;-1.224;2023-05-07T08:31:33;10.07;;;7.13;;
70543;SDS011;58097;48.364;-1.224;2023-05-07T08:33:59;10.07;;;6.85;;
70543;SDS011;58097;48.364;-1.224;2023-05-07T08:36:25;15.23;;;6.82;;
70543;SDS011;58097;48.364;-1.224;2023-05-07T08:38:53;10.68;;;6.80;;
70543;SDS011;58097;48.364;-1.224;2023-05-07T08:41:19;8.80;;;5.43;;
70543;SDS011;58097;48.364;-1.224;2023-05-07T08:43:49;9.82;;;5.32;;
70543;SDS011;58097;48.364;-1.224;2023-05-07T08:46:19;8.95;;;5.63;;
70543;SDS011;58097;48.364;-1.224;2023-05-07T08:48:48;7.95;;;5.10;;
70543;SDS011;58097;48.364;-1.224;2023-05-07T08:51:16;10.27;;;4.57;;
70543;SDS011;58097;48.364;-1.224;2023-05-07T08:53:43;7.40;;;4.75;;
70543;SDS011;58097;48.364;-1.224;2023-05-07T08:56:11;9.95;;;4.82;;
70543;SDS011;58097;48.364;-1.224;2023-05-07T08:58:37;7.78;;;4.35;;
70543;SDS011;58097;48.364;-1.224;2023-05-07T09:01:03;4.75;;;3.40;;
70543;SDS011;58097;48.364;-1.224;2023-05-07T09:03:32;5.32;;;3.80;;
70543;SDS011;58097;48.364;-1.224;2023-05-07T09:05:58;7.63;;;3.80;;
70543;SDS011;58097;48.364;-1.224;2023-05-07T09:08:26;6.82;;;4.15;;
70543;SDS011;58097;48.364;-1.224;2023-05-07T09:10:52;6.55;;;4.07;;
70543;SDS011;58097;48.364;-1.224;2023-05-07T09:13:18;7.85;;;4.25;;
70543;SDS011;58097;48.364;-1.224;2023-05-07T09:15:44;8.10;;;4.72;;
70543;SDS011;58097;48.364;-1.224;2023-05-07T09:18:10;8.27;;;4.65;;
70543;SDS011;58097;48.364;-1.224;2023-05-07T09:20:37;8.38;;;4.32;;
70543;SDS011;58097;48.364;-1.224;2023-05-07T09:23:03;7.13;;;4.35;;
70543;SDS011;58097;48.364;-1.224;2023-05-07T09:25:29;7.97;;;4.32;;
70543;SDS011;58097;48.364;-1.224;2023-05-07T09:27:59;9.27;;;4.15;;
70543;SDS011;58097;48.364;-1.224;2023-05-07T09:30:28;10.02;;;4.18;;
70543;SDS011;58097;48.364;-1.224;2023-05-07T09:32:55;6.57;;;3.63;;
70543;SDS011;58097;48.364;-1.224;2023-05-07T09:35:21;6.85;;;3.70;;
70543;SDS011;58097;48.364;-1.224;2023-05-07T09:37:49;5.15;;;3.35;;
70543;SDS011;58097;48.364;-1.224;2023-05-07T09:40:21;8.48;;;3.67;;
70543;SDS011;58097;48.364;-1.224;2023-05-07T09:42:48;6.25;;;3.45;;
70543;SDS011;58097;48.364;-1.224;2023-05-07T09:45:14;5.45;;;3.33;;
70543;SDS011;58097;48.364;-1.224;2023-05-07T09:47:40;3.88;;;2.80;;
70543;SDS011;58097;48.364;-1.224;2023-05-07T09:50:09;4.80;;;3.22;;
70543;SDS011;58097;48.364;-1.224;2023-05-07T09:52:38;5.05;;;2.80;;
70543;SDS011;58097;48.364;-1.224;2023-05-07T09:55:05;4.72;;;2.83;;
70543;SDS011;58097;48.364;-1.224;2023-05-07T09:57:32;7.43;;;3.55;;
70543;SDS011;58097;48.364;-1.224;2023-05-07T10:00:00;7.75;;;3.58;;
70543;SDS011;58097;48.364;-1.224;2023-05-07T10:02:29;7.85;;;4.60;;
70543;SDS011;58097;48.364;-1.224;2023-05-07T10:04:56;10.02;;;4.53;;
70543;SDS011;58097;48.364;-1.224;2023-05-07T10:07:25;6.10;;;3.58;;
70543;SDS011;58097;48.364;-1.224;2023-05-07T10:09:51;8.35;;;4.07;;
70543;SDS011;58097;48.364;-1.224;2023-05-07T10:12:17;8.68;;;4.18;;
70543;SDS011;58097;48.364;-1.224;2023-05-07T10:14:45;8.10;;;5.30;;
70543;SDS011;58097;48.364;-1.224;2023-05-07T10:17:11;6.72;;;4.47;;
70543;SDS011;58097;48.364;-1.224;2023-05-07T10:19:37;7.80;;;4.85;;
70543;SDS011;58097;48.364;-1.224;2023-05-07T10:22:04;7.30;;;4.47;;
70543;SDS011;58097;48.364;-1.224;2023-05-07T10:24:31;7.72;;;4.72;;
70543;SDS011;58097;48.364;-1.224;2023-05-07T10:26:59;9.45;;;5.03;;
70543;SDS011;58097;48.364;-1.224;2023-05-07T10:34:36;7.25;;;4.70;;
70543;SDS011;58097;48.364;-1.224;2023-05-07T10:37:05;11.35;;;5.85;;
70543;SDS011;58097;48.364;-1.224;2023-05-07T10:39:31;8.52;;;5.90;;
70543;SDS011;58097;48.364;-1.224;2023-05-07T10:41:57;11.07;;;5.43;;
70543;SDS011;58097;48.364;-1.224;2023-05-07T10:44:36;11.88;;;6.03;;
70543;SDS011;58097;48.364;-1.224;2023-05-07T10:47:12;11.40;;;6.70;;
70543;SDS011;58097;48.364;-1.224;2023-05-07T10:52:11;14.95;;;8.60;;
70543;SDS011;58097;48.364;-1.224;2023-05-07T10:54:36;13.27;;;7.25;;
70543;SDS011;58097;48.364;-1.224;2023-05-07T10:57:31;11.57;;;6.40;;
70543;SDS011;58097;48.364;-1.224;2023-05-07T10:59:55;15.80;;;6.93;;
70543;SDS011;58097;48.364;-1.224;2023-05-07T11:02:21;8.93;;;5.82;;
70543;SDS011;58097;48.364;-1.224;2023-05-07T11:04:52;11.70;;;5.93;;
70543;SDS011;58097;48.364;-1.224;2023-05-07T11:07:44;11.02;;;6.13;;
70543;SDS011;58097;48.364;-1.224;2023-05-07T11:10:19;11.60;;;6.30;;
70543;SDS011;58097;48.364;-1.224;2023-05-07T11:15:10;11.02;;;5.70;;
70543;SDS011;58097;48.364;-1.224;2023-05-07T11:17:53;9.68;;;5.10;;
70543;SDS011;58097;48.364;-1.224;2023-05-07T11:20:20;6.15;;;3.92;;
70543;SDS011;58097;48.364;-1.224;2023-05-07T11:22:46;15.10;;;5.47;;
70543;SDS011;58097;48.364;-1.224;2023-05-07T11:25:16;10.02;;;5.80;;
70543;SDS011;58097;48.364;-1.224;2023-05-07T11:27:44;9.25;;;4.57;;
70543;SDS011;58097;48.364;-1.224;2023-05-07T11:30:10;6.00;;;4.32;;
70543;SDS011;58097;48.364;-1.224;2023-05-07T11:32:41;7.28;;;4.40;;
70543;SDS011;58097;48.364;-1.224;2023-05-07T11:35:07;11.35;;;5.05;;
70543;SDS011;58097;48.364;-1.224;2023-05-07T11:37:33;10.52;;;5.60;;
70543;SDS011;58097;48.364;-1.224;2023-05-07T11:40:02;10.98;;;4.88;;
70543;SDS011;58097;48.364;-1.224;2023-05-07T11:42:35;7.90;;;4.40;;
70543;SDS011;58097;48.364;-1.224;2023-05-07T11:45:05;7.18;;;4.10;;
70543;SDS011;58097;48.364;-1.224;2023-05-07T11:47:32;7.28;;;3.75;;
70543;SDS011;58097;48.364;-1.224;2023-05-07T11:50:02;7.90;;;3.20;;
70543;SDS011;58097;48.364;-1.224;2023-05-07T11:52:29;8.32;;;3.92;;
70543;SDS011;58097;48.364;-1.224;2023-05-07T11:54:55;5.82;;;3.22;;
70543;SDS011;58097;48.364;-1.224;2023-05-07T11:57:22;5.65;;;3.88;;
70543;SDS011;58097;48.364;-1.224;2023-05-07T11:59:52;8.88;;;3.78;;
70543;SDS011;58097;48.364;-1.224;2023-05-07T12:02:21;9.60;;;3.88;;
70543;SDS011;58097;48.364;-1.224;2023-05-07T12:04:46;4.15;;;2.90;;
70543;SDS011;58097;48.364;-1.224;2023-05-07T12:07:12;7.57;;;3.50;;
70543;SDS011;58097;48.364;-1.224;2023-05-07T12:09:41;8.02;;;3.30;;
70543;SDS011;58097;48.364;-1.224;2023-05-07T12:12:07;6.85;;;3.22;;
70543;SDS011;58097;48.364;-1.224;2023-05-07T12:14:32;9.88;;;3.35;;
70543;SDS011;58097;48.364;-1.224;2023-05-07T12:17:02;6.00;;;3.42;;
70543;SDS011;58097;48.364;-1.224;2023-05-07T12:19:31;6.18;;;2.85;;
70543;SDS011;58097;48.364;-1.224;2023-05-07T12:21:57;8.38;;;3.10;;
70543;SDS011;58097;48.364;-1.224;2023-05-07T12:24:23;8.13;;;4.07;;
70543;SDS011;58097;48.364;-1.224;2023-05-07T12:26:48;10.85;;;3.42;;
70543;SDS011;58097;48.364;-1.224;2023-05-07T12:29:14;7.40;;;3.28;;
70543;SDS011;58097;48.364;-1.224;2023-05-07T12:31:40;5.22;;;3.45;;
70543;SDS011;58097;48.364;-1.224;2023-05-07T12:34:06;6.63;;;3.58;;
70543;SDS011;58097;48.364;-1.224;2023-05-07T12:36:38;10.10;;;4.28;;
70543;SDS011;58097;48.364;-1.224;2023-05-07T12:39:07;9.20;;;4.00;;
70543;SDS011;58097;48.364;-1.224;2023-05-07T12:41:53;13.38;;;5.55;;
70543;SDS011;58097;48.364;-1.224;2023-05-07T12:44:29;7.80;;;3.88;;
70543;SDS011;58097;48.364;-1.224;2023-05-07T12:46:56;6.32;;;3.72;;
70543;SDS011;58097;48.364;-1.224;2023-05-07T12:49:22;8.77;;;3.92;;
70543;SDS011;58097;48.364;-1.224;2023-05-07T12:51:48;10.93;;;4.40;;
70543;SDS011;58097;48.364;-1.224;2023-05-07T12:54:27;6.45;;;3.30;;
70543;SDS011;58097;48.364;-1.224;2023-05-07T12:57:00;9.30;;;3.60;;
70543;SDS011;58097;48.364;-1.224;2023-05-07T12:59:36;4.07;;;3.03;;
70543;SDS011;58097;48.364;-1.224;2023-05-07T13:02:03;7.00;;;3.22;;
70543;SDS011;58097;48.364;-1.224;2023-05-07T13:04:28;4.10;;;2.75;;
70543;SDS011;58097;48.364;-1.224;2023-05-07T13:06:54;10.52;;;2.92;;
70543;SDS011;58097;48.364;-1.224;2023-05-07T13:09:19;5.40;;;2.47;;
70543;SDS011;58097;48.364;-1.224;2023-05-07T13:11:45;3.65;;;2.58;;
70543;SDS011;58097;48.364;-1.224;2023-05-07T13:14:10;10.35;;;3.92;;
70543;SDS011;58097;48.364;-1.224;2023-05-07T13:16:35;5.20;;;3.03;;
70543;SDS011;58097;48.364;-1.224;2023-05-07T13:19:01;6.85;;;3.22;;
70543;SDS011;58097;48.364;-1.224;2023-05-07T13:21:26;8.75;;;3.50;;
70543;SDS011;58097;48.364;-1.224;2023-05-07T13:23:52;10.73;;;3.67;;
70543;SDS011;58097;48.364;-1.224;2023-05-07T13:26:17;7.10;;;2.65;;
70543;SDS011;58097;48.364;-1.224;2023-05-07T13:28:43;6.03;;;2.53;;
70543;SDS011;58097;48.364;-1.224;2023-05-07T13:31:08;6.57;;;2.75;;
70543;SDS011;58097;48.364;-1.224;2023-05-07T13:33:34;6.60;;;2.47;;
70543;SDS011;58097;48.364;-1.224;2023-05-07T13:35:59;5.97;;;2.60;;
70543;SDS011;58097;48.364;-1.224;2023-05-07T13:38:25;10.30;;;2.33;;
70543;SDS011;58097;48.364;-1.224;2023-05-07T13:40:51;10.48;;;2.47;;
70543;SDS011;58097;48.364;-1.224;2023-05-07T13:43:16;6.22;;;2.50;;
70543;SDS011;58097;48.364;-1.224;2023-05-07T13:45:43;5.72;;;2.60;;
70543;SDS011;58097;48.364;-1.224;2023-05-07T13:48:09;6.03;;;2.47;;
70543;SDS011;58097;48.364;-1.224;2023-05-07T13:50:34;9.45;;;2.58;;
70543;SDS011;58097;48.364;-1.224;2023-05-07T13:53:00;8.43;;;2.42;;
70543;SDS011;58097;48.364;-1.224;2023-05-07T13:55:28;7.40;;;2.58;;
70543;SDS011;58097;48.364;-1.224;2023-05-07T13:57:54;6.22;;;1.98;;
70543;SDS011;58097;48.364;-1.224;2023-05-07T14:00:24;6.38;;;2.63;;
70543;SDS011;58097;48.364;-1.224;2023-05-07T14:02:51;9.10;;;2.70;;
70543;SDS011;58097;48.364;-1.224;2023-05-07T14:05:16;4.57;;;1.70;;
70543;SDS011;58097;48.364;-1.224;2023-05-07T14:07:42;5.80;;;2.40;;
70543;SDS011;58097;48.364;-1.224;2023-05-07T14:10:07;3.90;;;2.28;;
70543;SDS011;58097;48.364;-1.224;2023-05-07T14:12:33;3.53;;;2.25;;
70543;SDS011;58097;48.364;-1.224;2023-05-07T14:14:58;4.20;;;2.10;;
70543;SDS011;58097;48.364;-1.224;2023-05-07T14:17:24;7.82;;;2.85;;
70543;SDS011;58097;48.364;-1.224;2023-05-07T14:19:51;3.72;;;1.85;;
70543;SDS011;58097;48.364;-1.224;2023-05-07T14:22:19;7.20;;;2.70;;
70543;SDS011;58097;48.364;-1.224;2023-05-07T14:24:45;3.75;;;2.30;;
70543;SDS011;58097;48.364;-1.224;2023-05-07T14:27:10;7.65;;;2.55;;
70543;SDS011;58097;48.364;-1.224;2023-05-07T14:29:36;5.85;;;2.05;;
70543;SDS011;58097;48.364;-1.224;2023-05-07T14:32:02;6.43;;;2.38;;
70543;SDS011;58097;48.364;-1.224;2023-05-07T14:34:28;6.53;;;2.67;;
70543;SDS011;58097;48.364;-1.224;2023-05-07T14:36:54;6.07;;;2.67;;
70543;SDS011;58097;48.364;-1.224;2023-05-07T14:39:20;4.70;;;1.95;;